sensor_id;sensor_type;location;lat;lon;timestamp;P1;durP1;ratioP1;P2;durP2;ratioP2
15833;SDS011;8017;50.812;4.934;2022-09-02T00:00:25;2.90;;;2.10;;
15833;SDS011;8017;50.812;4.934;2022-09-02T00:03:27;4.83;;;1.80;;
15833;SDS011;8017;50.812;4.934;2022-09-02T00:06:31;3.23;;;2.00;;
15833;SDS011;8017;50.812;4.934;2022-09-02T00:09:35;3.93;;;2.50;;
15833;SDS011;8017;50.812;4.934;2022-09-02T00:12:39;4.47;;;1.93;;
15833;SDS011;8017;50.812;4.934;2022-09-02T00:15:41;2.67;;;2.00;;
15833;SDS011;8017;50.812;4.934;2022-09-02T00:18:43;2.27;;;1.87;;
15833;SDS011;8017;50.812;4.934;2022-09-02T00:21:47;4.10;;;2.13;;
15833;SDS011;8017;50.812;4.934;2022-09-02T00:24:50;3.50;;;1.80;;
15833;SDS011;8017;50.812;4.934;2022-09-02T00:27:52;3.90;;;1.53;;
15833;SDS011;8017;50.812;4.934;2022-09-02T00:30:54;4.13;;;2.10;;
15833;SDS011;8017;50.812;4.934;2022-09-02T00:33:56;4.47;;;1.80;;
15833;SDS011;8017;50.812;4.934;2022-09-02T00:36:58;3.20;;;1.87;;
15833;SDS011;8017;50.812;4.934;2022-09-02T00:40:02;4.00;;;2.13;;
15833;SDS011;8017;50.812;4.934;2022-09-02T00:43:05;3.77;;;1.90;;
15833;SDS011;8017;50.812;4.934;2022-09-02T00:46:09;3.77;;;2.07;;
15833;SDS011;8017;50.812;4.934;2022-09-02T00:49:13;6.77;;;2.00;;
15833;SDS011;8017;50.812;4.934;2022-09-02T00:52:18;4.07;;;2.10;;
15833;SDS011;8017;50.812;4.934;2022-09-02T00:55:26;4.50;;;1.90;;
15833;SDS011;8017;50.812;4.934;2022-09-02T00:58:31;4.10;;;2.00;;
15833;SDS011;8017;50.812;4.934;2022-09-02T01:01:35;3.23;;;1.60;;
15833;SDS011;8017;50.812;4.934;2022-09-02T01:04:37;4.00;;;2.00;;
15833;SDS011;8017;50.812;4.934;2022-09-02T01:07:39;2.83;;;2.17;;
15833;SDS011;8017;50.812;4.934;2022-09-02T01:10:43;5.23;;;2.20;;
15833;SDS011;8017;50.812;4.934;2022-09-02T01:13:47;2.77;;;2.10;;
15833;SDS011;8017;50.812;4.934;2022-09-02T01:16:50;3.53;;;2.30;;
15833;SDS011;8017;50.812;4.934;2022-09-02T01:19:54;3.57;;;2.40;;
15833;SDS011;8017;50.812;4.934;2022-09-02T01:23:00;4.33;;;2.43;;
15833;SDS011;8017;50.812;4.934;2022-09-02T01:26:03;3.90;;;2.17;;
15833;SDS011;8017;50.812;4.934;2022-09-02T01:29:06;3.73;;;2.10;;
15833;SDS011;8017;50.812;4.934;2022-09-02T01:32:08;2.83;;;2.03;;
15833;SDS011;8017;50.812;4.934;2022-09-02T01:35:10;4.07;;;2.27;;
15833;SDS011;8017;50.812;4.934;2022-09-02T01:38:14;3.80;;;2.43;;
15833;SDS011;8017;50.812;4.934;2022-09-02T01:41:16;3.70;;;2.10;;
15833;SDS011;8017;50.812;4.934;2022-09-02T01:44:17;4.27;;;2.23;;
15833;SDS011;8017;50.812;4.934;2022-09-02T01:47:20;2.50;;;1.80;;
15833;SDS011;8017;50.812;4.934;2022-09-02T01:50:23;5.37;;;2.50;;
15833;SDS011;8017;50.812;4.934;2022-09-02T01:53:28;5.10;;;2.07;;
15833;SDS011;8017;50.812;4.934;2022-09-02T01:56:30;4.20;;;2.30;;
15833;SDS011;8017;50.812;4.934;2022-09-02T01:59:32;6.17;;;2.40;;
15833;SDS011;8017;50.812;4.934;2022-09-02T02:02:34;4.67;;;2.47;;
15833;SDS011;8017;50.812;4.934;2022-09-02T02:05:36;4.73;;;2.70;;
15833;SDS011;8017;50.812;4.934;2022-09-02T02:08:40;5.23;;;2.07;;
15833;SDS011;8017;50.812;4.934;2022-09-02T02:11:42;2.33;;;2.13;;
15833;SDS011;8017;50.812;4.934;2022-09-02T02:14:45;5.67;;;2.17;;
15833;SDS011;8017;50.812;4.934;2022-09-02T02:17:48;4.73;;;2.23;;
15833;SDS011;8017;50.812;4.934;2022-09-02T02:20:50;6.77;;;2.20;;
15833;SDS011;8017;50.812;4.934;2022-09-02T02:23:53;2.97;;;2.27;;
15833;SDS011;8017;50.812;4.934;2022-09-02T02:26:55;3.63;;;2.40;;
15833;SDS011;8017;50.812;4.934;2022-09-02T02:29:57;6.80;;;2.70;;
15833;SDS011;8017;50.812;4.934;2022-09-02T02:32:59;4.70;;;2.20;;
15833;SDS011;8017;50.812;4.934;2022-09-02T02:36:01;3.20;;;2.23;;
15833;SDS011;8017;50.812;4.934;2022-09-02T02:39:05;7.17;;;2.37;;
15833;SDS011;8017;50.812;4.934;2022-09-02T02:42:08;2.60;;;2.07;;
15833;SDS011;8017;50.812;4.934;2022-09-02T02:45:11;6.30;;;2.50;;
15833;SDS011;8017;50.812;4.934;2022-09-02T02:48:13;6.13;;;2.57;;
15833;SDS011;8017;50.812;4.934;2022-09-02T02:51:15;5.67;;;2.57;;
15833;SDS011;8017;50.812;4.934;2022-09-02T02:54:18;7.43;;;2.90;;
15833;SDS011;8017;50.812;4.934;2022-09-02T02:57:20;2.50;;;2.13;;
15833;SDS011;8017;50.812;4.934;2022-09-02T03:00:23;4.17;;;2.30;;
15833;SDS011;8017;50.812;4.934;2022-09-02T03:03:27;6.77;;;2.27;;
15833;SDS011;8017;50.812;4.934;2022-09-02T03:06:30;3.87;;;2.30;;
15833;SDS011;8017;50.812;4.934;2022-09-02T03:09:33;4.63;;;2.37;;
15833;SDS011;8017;50.812;4.934;2022-09-02T03:12:36;7.50;;;2.40;;
15833;SDS011;8017;50.812;4.934;2022-09-02T03:15:38;3.77;;;2.23;;
15833;SDS011;8017;50.812;4.934;2022-09-02T03:18:40;2.40;;;2.20;;
15833;SDS011;8017;50.812;4.934;2022-09-02T03:21:42;5.57;;;2.17;;
15833;SDS011;8017;50.812;4.934;2022-09-02T03:24:46;3.77;;;2.30;;
15833;SDS011;8017;50.812;4.934;2022-09-02T03:27:48;4.37;;;2.40;;
15833;SDS011;8017;50.812;4.934;2022-09-02T03:30:50;5.17;;;2.50;;
15833;SDS011;8017;50.812;4.934;2022-09-02T03:33:52;4.63;;;2.73;;
15833;SDS011;8017;50.812;4.934;2022-09-02T03:36:54;5.73;;;2.50;;
15833;SDS011;8017;50.812;4.934;2022-09-02T03:39:57;4.03;;;2.57;;
15833;SDS011;8017;50.812;4.934;2022-09-02T03:42:59;3.70;;;2.33;;
15833;SDS011;8017;50.812;4.934;2022-09-02T03:46:01;4.53;;;2.77;;
15833;SDS011;8017;50.812;4.934;2022-09-02T03:49:04;5.97;;;2.53;;
15833;SDS011;8017;50.812;4.934;2022-09-02T03:52:06;6.70;;;2.67;;
15833;SDS011;8017;50.812;4.934;2022-09-02T03:55:10;5.67;;;2.40;;
15833;SDS011;8017;50.812;4.934;2022-09-02T03:58:12;3.53;;;2.27;;
15833;SDS011;8017;50.812;4.934;2022-09-02T04:01:15;2.77;;;2.20;;
15833;SDS011;8017;50.812;4.934;2022-09-02T04:04:18;4.23;;;2.73;;
15833;SDS011;8017;50.812;4.934;2022-09-02T04:07:20;4.97;;;2.67;;
15833;SDS011;8017;50.812;4.934;2022-09-02T04:10:23;5.50;;;2.60;;
15833;SDS011;8017;50.812;4.934;2022-09-02T04:13:25;4.87;;;2.53;;
15833;SDS011;8017;50.812;4.934;2022-09-02T04:16:27;4.80;;;2.73;;
15833;SDS011;8017;50.812;4.934;2022-09-02T04:19:29;4.97;;;2.90;;
15833;SDS011;8017;50.812;4.934;2022-09-02T04:22:31;4.43;;;2.83;;
15833;SDS011;8017;50.812;4.934;2022-09-02T04:25:38;4.67;;;2.60;;
15833;SDS011;8017;50.812;4.934;2022-09-02T04:28:41;5.97;;;2.53;;
15833;SDS011;8017;50.812;4.934;2022-09-02T04:31:43;4.77;;;2.63;;
15833;SDS011;8017;50.812;4.934;2022-09-02T04:34:44;4.63;;;2.63;;
15833;SDS011;8017;50.812;4.934;2022-09-02T04:37:46;4.73;;;2.50;;
15833;SDS011;8017;50.812;4.934;2022-09-02T04:40:50;3.57;;;2.60;;
15833;SDS011;8017;50.812;4.934;2022-09-02T04:43:53;6.77;;;3.87;;
15833;SDS011;8017;50.812;4.934;2022-09-02T04:46:56;4.17;;;2.87;;
15833;SDS011;8017;50.812;4.934;2022-09-02T04:49:58;6.63;;;2.67;;
15833;SDS011;8017;50.812;4.934;2022-09-02T04:53:00;4.27;;;3.00;;
15833;SDS011;8017;50.812;4.934;2022-09-02T04:56:03;6.00;;;3.10;;
15833;SDS011;8017;50.812;4.934;2022-09-02T04:59:05;6.50;;;2.80;;
15833;SDS011;8017;50.812;4.934;2022-09-02T05:02:07;5.27;;;2.87;;
15833;SDS011;8017;50.812;4.934;2022-09-02T05:05:10;5.80;;;2.70;;
15833;SDS011;8017;50.812;4.934;2022-09-02T05:08:11;3.83;;;2.73;;
15833;SDS011;8017;50.812;4.934;2022-09-02T05:11:16;6.97;;;2.70;;
15833;SDS011;8017;50.812;4.934;2022-09-02T05:14:19;3.17;;;2.80;;
15833;SDS011;8017;50.812;4.934;2022-09-02T05:17:22;6.27;;;3.00;;
15833;SDS011;8017;50.812;4.934;2022-09-02T05:20:25;8.10;;;3.03;;
15833;SDS011;8017;50.812;4.934;2022-09-02T05:23:27;5.40;;;2.83;;
15833;SDS011;8017;50.812;4.934;2022-09-02T05:26:31;4.33;;;2.70;;
15833;SDS011;8017;50.812;4.934;2022-09-02T05:29:35;6.27;;;2.80;;
15833;SDS011;8017;50.812;4.934;2022-09-02T05:32:37;5.57;;;3.10;;
15833;SDS011;8017;50.812;4.934;2022-09-02T05:35:40;9.23;;;3.13;;
15833;SDS011;8017;50.812;4.934;2022-09-02T05:38:43;6.13;;;3.10;;
15833;SDS011;8017;50.812;4.934;2022-09-02T05:41:47;5.53;;;3.67;;
15833;SDS011;8017;50.812;4.934;2022-09-02T05:44:48;5.63;;;3.07;;
15833;SDS011;8017;50.812;4.934;2022-09-02T05:47:50;6.53;;;3.03;;
15833;SDS011;8017;50.812;4.934;2022-09-02T05:50:52;6.00;;;3.30;;
15833;SDS011;8017;50.812;4.934;2022-09-02T05:53:55;5.70;;;3.23;;
15833;SDS011;8017;50.812;4.934;2022-09-02T05:57:00;5.27;;;2.93;;
15833;SDS011;8017;50.812;4.934;2022-09-02T06:00:04;5.40;;;2.90;;
15833;SDS011;8017;50.812;4.934;2022-09-02T06:03:07;6.17;;;3.57;;
15833;SDS011;8017;50.812;4.934;2022-09-02T06:06:09;7.37;;;2.80;;
15833;SDS011;8017;50.812;4.934;2022-09-02T06:09:14;6.70;;;3.13;;
15833;SDS011;8017;50.812;4.934;2022-09-02T06:12:19;6.20;;;3.20;;
15833;SDS011;8017;50.812;4.934;2022-09-02T06:15:22;5.73;;;3.40;;
15833;SDS011;8017;50.812;4.934;2022-09-02T06:18:26;5.93;;;2.80;;
15833;SDS011;8017;50.812;4.934;2022-09-02T06:21:28;7.07;;;3.40;;
15833;SDS011;8017;50.812;4.934;2022-09-02T06:24:31;6.83;;;3.27;;
15833;SDS011;8017;50.812;4.934;2022-09-02T06:27:34;6.37;;;3.50;;
15833;SDS011;8017;50.812;4.934;2022-09-02T06:30:37;4.70;;;3.43;;
15833;SDS011;8017;50.812;4.934;2022-09-02T06:33:40;7.07;;;3.10;;
15833;SDS011;8017;50.812;4.934;2022-09-02T06:36:43;5.33;;;3.20;;
15833;SDS011;8017;50.812;4.934;2022-09-02T06:39:46;7.17;;;3.37;;
15833;SDS011;8017;50.812;4.934;2022-09-02T06:42:49;6.13;;;3.93;;
15833;SDS011;8017;50.812;4.934;2022-09-02T06:45:53;6.20;;;3.47;;
15833;SDS011;8017;50.812;4.934;2022-09-02T06:48:54;8.20;;;3.90;;
15833;SDS011;8017;50.812;4.934;2022-09-02T06:51:56;7.93;;;3.27;;
15833;SDS011;8017;50.812;4.934;2022-09-02T06:54:59;7.37;;;3.43;;
15833;SDS011;8017;50.812;4.934;2022-09-02T06:58:02;8.27;;;3.20;;
15833;SDS011;8017;50.812;4.934;2022-09-02T07:01:05;4.17;;;3.20;;
15833;SDS011;8017;50.812;4.934;2022-09-02T07:04:07;5.53;;;3.20;;
15833;SDS011;8017;50.812;4.934;2022-09-02T07:07:26;7.63;;;3.33;;
15833;SDS011;8017;50.812;4.934;2022-09-02T07:10:28;7.47;;;3.30;;
15833;SDS011;8017;50.812;4.934;2022-09-02T07:13:32;6.07;;;3.40;;
15833;SDS011;8017;50.812;4.934;2022-09-02T07:16:35;4.43;;;3.30;;
15833;SDS011;8017;50.812;4.934;2022-09-02T07:19:42;6.23;;;3.30;;
15833;SDS011;8017;50.812;4.934;2022-09-02T07:22:44;9.30;;;3.47;;
15833;SDS011;8017;50.812;4.934;2022-09-02T07:25:46;9.80;;;3.20;;
15833;SDS011;8017;50.812;4.934;2022-09-02T07:28:50;5.27;;;3.40;;
15833;SDS011;8017;50.812;4.934;2022-09-02T07:31:51;4.60;;;2.93;;
15833;SDS011;8017;50.812;4.934;2022-09-02T07:34:53;5.00;;;2.70;;
15833;SDS011;8017;50.812;4.934;2022-09-02T07:37:55;7.07;;;3.20;;
15833;SDS011;8017;50.812;4.934;2022-09-02T07:40:57;6.20;;;3.30;;
15833;SDS011;8017;50.812;4.934;2022-09-02T07:44:01;6.67;;;3.20;;
15833;SDS011;8017;50.812;4.934;2022-09-02T07:47:04;6.13;;;3.27;;
15833;SDS011;8017;50.812;4.934;2022-09-02T07:50:07;4.93;;;3.23;;
15833;SDS011;8017;50.812;4.934;2022-09-02T07:53:09;6.93;;;3.77;;
15833;SDS011;8017;50.812;4.934;2022-09-02T07:56:13;5.60;;;3.97;;
15833;SDS011;8017;50.812;4.934;2022-09-02T07:59:16;5.87;;;3.70;;
15833;SDS011;8017;50.812;4.934;2022-09-02T08:02:20;8.17;;;3.67;;
15833;SDS011;8017;50.812;4.934;2022-09-02T08:05:23;8.03;;;3.83;;
15833;SDS011;8017;50.812;4.934;2022-09-02T08:08:26;5.90;;;3.13;;
15833;SDS011;8017;50.812;4.934;2022-09-02T08:11:27;7.50;;;3.50;;
15833;SDS011;8017;50.812;4.934;2022-09-02T08:14:33;5.87;;;3.70;;
15833;SDS011;8017;50.812;4.934;2022-09-02T08:17:34;7.30;;;3.57;;
15833;SDS011;8017;50.812;4.934;2022-09-02T08:20:39;10.27;;;3.77;;
15833;SDS011;8017;50.812;4.934;2022-09-02T08:23:41;6.80;;;3.27;;
15833;SDS011;8017;50.812;4.934;2022-09-02T08:26:43;6.70;;;3.10;;
15833;SDS011;8017;50.812;4.934;2022-09-02T08:29:46;5.50;;;2.63;;
15833;SDS011;8017;50.812;4.934;2022-09-02T08:32:48;8.20;;;3.00;;
15833;SDS011;8017;50.812;4.934;2022-09-02T08:35:50;9.23;;;3.03;;
15833;SDS011;8017;50.812;4.934;2022-09-02T08:38:52;5.27;;;2.97;;
15833;SDS011;8017;50.812;4.934;2022-09-02T08:41:58;5.13;;;2.60;;
15833;SDS011;8017;50.812;4.934;2022-09-02T08:45:10;3.23;;;2.10;;
15833;SDS011;8017;50.812;4.934;2022-09-02T08:48:15;9.33;;;2.73;;
15833;SDS011;8017;50.812;4.934;2022-09-02T08:51:24;6.67;;;2.10;;
15833;SDS011;8017;50.812;4.934;2022-09-02T08:54:31;2.33;;;1.90;;
15833;SDS011;8017;50.812;4.934;2022-09-02T08:57:37;3.17;;;2.23;;
15833;SDS011;8017;50.812;4.934;2022-09-02T09:00:41;5.37;;;1.97;;
15833;SDS011;8017;50.812;4.934;2022-09-02T09:03:51;2.87;;;2.00;;
15833;SDS011;8017;50.812;4.934;2022-09-02T09:07:17;4.13;;;2.00;;
15833;SDS011;8017;50.812;4.934;2022-09-02T09:10:28;4.07;;;1.83;;
15833;SDS011;8017;50.812;4.934;2022-09-02T09:13:40;4.63;;;2.03;;
15833;SDS011;8017;50.812;4.934;2022-09-02T09:17:09;3.70;;;2.10;;
15833;SDS011;8017;50.812;4.934;2022-09-02T09:20:20;2.80;;;1.90;;
15833;SDS011;8017;50.812;4.934;2022-09-02T09:23:27;3.73;;;2.00;;
15833;SDS011;8017;50.812;4.934;2022-09-02T09:26:33;6.27;;;1.87;;
15833;SDS011;8017;50.812;4.934;2022-09-02T09:29:39;4.47;;;1.87;;
15833;SDS011;8017;50.812;4.934;2022-09-02T09:32:44;3.40;;;2.03;;
15833;SDS011;8017;50.812;4.934;2022-09-02T09:35:48;3.37;;;1.80;;
15833;SDS011;8017;50.812;4.934;2022-09-02T09:38:51;3.23;;;1.83;;
15833;SDS011;8017;50.812;4.934;2022-09-02T09:41:54;3.57;;;1.97;;
15833;SDS011;8017;50.812;4.934;2022-09-02T09:44:57;3.53;;;1.80;;
15833;SDS011;8017;50.812;4.934;2022-09-02T09:48:09;5.00;;;1.87;;
15833;SDS011;8017;50.812;4.934;2022-09-02T09:51:24;5.97;;;2.20;;
15833;SDS011;8017;50.812;4.934;2022-09-02T09:54:26;4.00;;;2.13;;
15833;SDS011;8017;50.812;4.934;2022-09-02T09:57:28;2.90;;;1.63;;
15833;SDS011;8017;50.812;4.934;2022-09-02T10:00:30;3.83;;;1.53;;
15833;SDS011;8017;50.812;4.934;2022-09-02T10:03:34;2.13;;;1.73;;
15833;SDS011;8017;50.812;4.934;2022-09-02T10:06:41;2.73;;;1.70;;
15833;SDS011;8017;50.812;4.934;2022-09-02T10:09:43;2.40;;;1.70;;
15833;SDS011;8017;50.812;4.934;2022-09-02T10:12:46;2.63;;;1.67;;
15833;SDS011;8017;50.812;4.934;2022-09-02T10:15:53;4.70;;;1.80;;
15833;SDS011;8017;50.812;4.934;2022-09-02T10:19:16;3.33;;;1.80;;
15833;SDS011;8017;50.812;4.934;2022-09-02T10:22:39;3.23;;;1.43;;
15833;SDS011;8017;50.812;4.934;2022-09-02T10:25:55;4.07;;;1.80;;
15833;SDS011;8017;50.812;4.934;2022-09-02T10:29:19;5.13;;;1.93;;
15833;SDS011;8017;50.812;4.934;2022-09-02T10:32:51;3.30;;;1.40;;
15833;SDS011;8017;50.812;4.934;2022-09-02T10:36:06;5.67;;;2.03;;
15833;SDS011;8017;50.812;4.934;2022-09-02T10:39:18;5.30;;;1.80;;
15833;SDS011;8017;50.812;4.934;2022-09-02T10:42:31;4.43;;;1.60;;
15833;SDS011;8017;50.812;4.934;2022-09-02T10:45:41;2.33;;;1.40;;
15833;SDS011;8017;50.812;4.934;2022-09-02T10:48:49;4.73;;;1.70;;
15833;SDS011;8017;50.812;4.934;2022-09-02T10:52:02;2.83;;;1.43;;
15833;SDS011;8017;50.812;4.934;2022-09-02T10:55:12;5.67;;;1.67;;
15833;SDS011;8017;50.812;4.934;2022-09-02T10:58:27;4.87;;;1.33;;
15833;SDS011;8017;50.812;4.934;2022-09-02T11:01:40;1.53;;;1.40;;
15833;SDS011;8017;50.812;4.934;2022-09-02T11:04:48;2.37;;;1.37;;
15833;SDS011;8017;50.812;4.934;2022-09-02T11:07:59;2.40;;;1.30;;
15833;SDS011;8017;50.812;4.934;2022-09-02T11:11:07;3.63;;;1.30;;
15833;SDS011;8017;50.812;4.934;2022-09-02T11:14:16;3.67;;;0.90;;
15833;SDS011;8017;50.812;4.934;2022-09-02T11:17:24;2.23;;;1.60;;
15833;SDS011;8017;50.812;4.934;2022-09-02T11:20:35;3.00;;;1.50;;
15833;SDS011;8017;50.812;4.934;2022-09-02T11:23:45;4.83;;;1.50;;
15833;SDS011;8017;50.812;4.934;2022-09-02T11:26:54;3.87;;;1.40;;
15833;SDS011;8017;50.812;4.934;2022-09-02T11:30:03;2.97;;;1.40;;
15833;SDS011;8017;50.812;4.934;2022-09-02T11:33:10;1.50;;;0.90;;
15833;SDS011;8017;50.812;4.934;2022-09-02T11:36:16;2.30;;;1.23;;
15833;SDS011;8017;50.812;4.934;2022-09-02T11:39:20;6.77;;;1.53;;
15833;SDS011;8017;50.812;4.934;2022-09-02T11:42:36;1.87;;;1.50;;
15833;SDS011;8017;50.812;4.934;2022-09-02T11:46:00;2.23;;;1.47;;
15833;SDS011;8017;50.812;4.934;2022-09-02T11:52:52;3.17;;;1.50;;
15833;SDS011;8017;50.812;4.934;2022-09-02T11:56:04;3.53;;;1.10;;
15833;SDS011;8017;50.812;4.934;2022-09-02T11:59:18;2.40;;;1.23;;
15833;SDS011;8017;50.812;4.934;2022-09-02T12:02:29;2.50;;;1.27;;
15833;SDS011;8017;50.812;4.934;2022-09-02T12:05:46;1.87;;;1.17;;
15833;SDS011;8017;50.812;4.934;2022-09-02T12:15:49;2.10;;;1.23;;
15833;SDS011;8017;50.812;4.934;2022-09-02T12:19:41;2.80;;;1.30;;
15833;SDS011;8017;50.812;4.934;2022-09-02T12:22:44;4.20;;;1.80;;
15833;SDS011;8017;50.812;4.934;2022-09-02T12:25:47;3.13;;;1.60;;
15833;SDS011;8017;50.812;4.934;2022-09-02T12:28:50;2.57;;;1.37;;
15833;SDS011;8017;50.812;4.934;2022-09-02T12:31:55;4.70;;;1.50;;
15833;SDS011;8017;50.812;4.934;2022-09-02T12:35:06;2.03;;;1.50;;
15833;SDS011;8017;50.812;4.934;2022-09-02T12:38:20;2.03;;;1.40;;
15833;SDS011;8017;50.812;4.934;2022-09-02T12:41:29;4.27;;;1.43;;
15833;SDS011;8017;50.812;4.934;2022-09-02T12:44:34;6.38;;;1.50;;
15833;SDS011;8017;50.812;4.934;2022-09-02T12:47:51;3.33;;;1.40;;
15833;SDS011;8017;50.812;4.934;2022-09-02T12:50:59;5.38;;;1.55;;
15833;SDS011;8017;50.812;4.934;2022-09-02T12:54:01;2.15;;;1.10;;
15833;SDS011;8017;50.812;4.934;2022-09-02T12:57:06;4.50;;;1.55;;
15833;SDS011;8017;50.812;4.934;2022-09-02T13:00:11;1.52;;;1.15;;
15833;SDS011;8017;50.812;4.934;2022-09-02T13:03:20;3.72;;;1.13;;
15833;SDS011;8017;50.812;4.934;2022-09-02T13:06:48;3.72;;;1.20;;
15833;SDS011;8017;50.812;4.934;2022-09-02T13:10:20;3.50;;;1.02;;
15833;SDS011;8017;50.812;4.934;2022-09-02T13:14:13;2.72;;;1.00;;
15833;SDS011;8017;50.812;4.934;2022-09-02T13:17:35;1.23;;;1.13;;
15833;SDS011;8017;50.812;4.934;2022-09-02T13:20:54;1.65;;;1.10;;
15833;SDS011;8017;50.812;4.934;2022-09-02T13:28:11;4.45;;;1.30;;
15833;SDS011;8017;50.812;4.934;2022-09-02T13:31:57;3.42;;;0.95;;
15833;SDS011;8017;50.812;4.934;2022-09-02T13:35:02;5.45;;;0.90;;
15833;SDS011;8017;50.812;4.934;2022-09-02T13:38:09;2.25;;;1.10;;
15833;SDS011;8017;50.812;4.934;2022-09-02T13:41:25;2.22;;;1.50;;
15833;SDS011;8017;50.812;4.934;2022-09-02T13:44:28;6.03;;;1.73;;
15833;SDS011;8017;50.812;4.934;2022-09-02T13:47:30;2.25;;;1.02;;
15833;SDS011;8017;50.812;4.934;2022-09-02T13:50:32;1.85;;;0.82;;
15833;SDS011;8017;50.812;4.934;2022-09-02T13:53:36;3.50;;;1.45;;
15833;SDS011;8017;50.812;4.934;2022-09-02T13:56:39;4.18;;;1.40;;
15833;SDS011;8017;50.812;4.934;2022-09-02T13:59:45;1.50;;;1.20;;
15833;SDS011;8017;50.812;4.934;2022-09-02T14:02:53;2.80;;;1.00;;
15833;SDS011;8017;50.812;4.934;2022-09-02T14:06:00;3.22;;;1.33;;
15833;SDS011;8017;50.812;4.934;2022-09-02T14:09:09;3.15;;;1.48;;
15833;SDS011;8017;50.812;4.934;2022-09-02T14:12:19;1.38;;;1.00;;
15833;SDS011;8017;50.812;4.934;2022-09-02T14:15:22;2.33;;;0.95;;
15833;SDS011;8017;50.812;4.934;2022-09-02T14:18:26;3.70;;;1.20;;
15833;SDS011;8017;50.812;4.934;2022-09-02T14:21:28;1.10;;;0.90;;
15833;SDS011;8017;50.812;4.934;2022-09-02T14:24:37;2.03;;;1.20;;
15833;SDS011;8017;50.812;4.934;2022-09-02T14:27:46;5.00;;;1.17;;
15833;SDS011;8017;50.812;4.934;2022-09-02T14:30:54;2.38;;;0.95;;
15833;SDS011;8017;50.812;4.934;2022-09-02T14:34:00;2.35;;;1.00;;
15833;SDS011;8017;50.812;4.934;2022-09-02T14:37:13;1.80;;;1.05;;
15833;SDS011;8017;50.812;4.934;2022-09-02T14:40:34;1.63;;;1.00;;
15833;SDS011;8017;50.812;4.934;2022-09-02T14:43:42;2.83;;;1.17;;
15833;SDS011;8017;50.812;4.934;2022-09-02T14:46:47;2.25;;;1.00;;
15833;SDS011;8017;50.812;4.934;2022-09-02T14:49:51;3.20;;;1.10;;
15833;SDS011;8017;50.812;4.934;2022-09-02T14:52:57;2.63;;;1.05;;
15833;SDS011;8017;50.812;4.934;2022-09-02T14:56:05;4.65;;;1.17;;
15833;SDS011;8017;50.812;4.934;2022-09-02T14:59:07;1.80;;;1.25;;
15833;SDS011;8017;50.812;4.934;2022-09-02T15:02:18;1.85;;;0.80;;
15833;SDS011;8017;50.812;4.934;2022-09-02T15:05:22;1.52;;;1.27;;
15833;SDS011;8017;50.812;4.934;2022-09-02T15:08:25;2.28;;;1.30;;
15833;SDS011;8017;50.812;4.934;2022-09-02T15:11:28;4.53;;;1.10;;
15833;SDS011;8017;50.812;4.934;2022-09-02T15:14:30;1.60;;;1.05;;
15833;SDS011;8017;50.812;4.934;2022-09-02T15:17:33;0.90;;;0.88;;
15833;SDS011;8017;50.812;4.934;2022-09-02T15:20:35;1.35;;;1.20;;
15833;SDS011;8017;50.812;4.934;2022-09-02T15:23:38;1.10;;;1.00;;
15833;SDS011;8017;50.812;4.934;2022-09-02T15:26:41;1.60;;;1.00;;
15833;SDS011;8017;50.812;4.934;2022-09-02T15:29:43;3.58;;;1.55;;
15833;SDS011;8017;50.812;4.934;2022-09-02T15:32:45;2.75;;;1.00;;
15833;SDS011;8017;50.812;4.934;2022-09-02T15:35:47;2.58;;;1.10;;
15833;SDS011;8017;50.812;4.934;2022-09-02T15:38:49;1.75;;;1.10;;
15833;SDS011;8017;50.812;4.934;2022-09-02T15:41:52;1.65;;;1.38;;
15833;SDS011;8017;50.812;4.934;2022-09-02T15:44:55;2.70;;;1.17;;
15833;SDS011;8017;50.812;4.934;2022-09-02T15:47:57;5.10;;;1.58;;
15833;SDS011;8017;50.812;4.934;2022-09-02T15:50:59;1.98;;;1.10;;
15833;SDS011;8017;50.812;4.934;2022-09-02T15:54:12;2.75;;;1.42;;
15833;SDS011;8017;50.812;4.934;2022-09-02T15:57:16;1.75;;;1.30;;
15833;SDS011;8017;50.812;4.934;2022-09-02T16:00:18;1.55;;;0.98;;
15833;SDS011;8017;50.812;4.934;2022-09-02T16:03:20;2.00;;;1.08;;
15833;SDS011;8017;50.812;4.934;2022-09-02T16:06:22;3.33;;;1.60;;
15833;SDS011;8017;50.812;4.934;2022-09-02T16:09:25;2.17;;;1.20;;
15833;SDS011;8017;50.812;4.934;2022-09-02T16:12:28;1.13;;;1.00;;
15833;SDS011;8017;50.812;4.934;2022-09-02T16:15:32;3.90;;;1.20;;
15833;SDS011;8017;50.812;4.934;2022-09-02T16:18:35;2.67;;;1.40;;
15833;SDS011;8017;50.812;4.934;2022-09-02T16:21:38;2.05;;;1.27;;
15833;SDS011;8017;50.812;4.934;2022-09-02T16:24:40;2.28;;;0.93;;
15833;SDS011;8017;50.812;4.934;2022-09-02T16:27:43;3.88;;;1.13;;
15833;SDS011;8017;50.812;4.934;2022-09-02T16:30:55;1.67;;;1.02;;
15833;SDS011;8017;50.812;4.934;2022-09-02T16:33:57;2.40;;;1.15;;
15833;SDS011;8017;50.812;4.934;2022-09-02T16:37:01;2.75;;;1.10;;
15833;SDS011;8017;50.812;4.934;2022-09-02T16:40:03;5.45;;;1.17;;
15833;SDS011;8017;50.812;4.934;2022-09-02T16:43:08;1.98;;;1.27;;
15833;SDS011;8017;50.812;4.934;2022-09-02T16:46:13;3.10;;;1.23;;
15833;SDS011;8017;50.812;4.934;2022-09-02T16:49:15;1.45;;;1.27;;
15833;SDS011;8017;50.812;4.934;2022-09-02T16:52:18;2.90;;;1.30;;
15833;SDS011;8017;50.812;4.934;2022-09-02T16:55:20;4.43;;;1.40;;
15833;SDS011;8017;50.812;4.934;2022-09-02T16:58:23;3.50;;;1.30;;
15833;SDS011;8017;50.812;4.934;2022-09-02T17:01:25;3.17;;;1.23;;
15833;SDS011;8017;50.812;4.934;2022-09-02T17:04:27;2.10;;;1.17;;
15833;SDS011;8017;50.812;4.934;2022-09-02T17:07:29;4.47;;;1.40;;
15833;SDS011;8017;50.812;4.934;2022-09-02T17:10:32;4.30;;;1.30;;
15833;SDS011;8017;50.812;4.934;2022-09-02T17:13:36;1.70;;;1.37;;
15833;SDS011;8017;50.812;4.934;2022-09-02T17:16:39;2.73;;;1.27;;
15833;SDS011;8017;50.812;4.934;2022-09-02T17:19:42;4.37;;;1.13;;
15833;SDS011;8017;50.812;4.934;2022-09-02T17:22:44;1.70;;;1.10;;
15833;SDS011;8017;50.812;4.934;2022-09-02T17:25:48;3.43;;;1.40;;
15833;SDS011;8017;50.812;4.934;2022-09-02T17:28:52;1.50;;;1.30;;
15833;SDS011;8017;50.812;4.934;2022-09-02T17:31:56;1.40;;;1.30;;
15833;SDS011;8017;50.812;4.934;2022-09-02T17:34:59;3.50;;;1.50;;
15833;SDS011;8017;50.812;4.934;2022-09-02T17:38:02;4.77;;;1.83;;
15833;SDS011;8017;50.812;4.934;2022-09-02T17:41:04;4.20;;;1.50;;
15833;SDS011;8017;50.812;4.934;2022-09-02T17:44:25;2.23;;;1.43;;
15833;SDS011;8017;50.812;4.934;2022-09-02T17:47:33;2.00;;;1.30;;
15833;SDS011;8017;50.812;4.934;2022-09-02T17:50:37;1.43;;;1.10;;
15833;SDS011;8017;50.812;4.934;2022-09-02T17:53:39;1.17;;;1.00;;
15833;SDS011;8017;50.812;4.934;2022-09-02T17:56:51;4.77;;;1.40;;
15833;SDS011;8017;50.812;4.934;2022-09-02T18:00:12;1.67;;;1.10;;
15833;SDS011;8017;50.812;4.934;2022-09-02T18:03:22;3.03;;;1.30;;
15833;SDS011;8017;50.812;4.934;2022-09-02T18:06:35;6.50;;;1.37;;
15833;SDS011;8017;50.812;4.934;2022-09-02T18:09:40;2.13;;;1.23;;
15833;SDS011;8017;50.812;4.934;2022-09-02T18:12:43;2.10;;;1.40;;
15833;SDS011;8017;50.812;4.934;2022-09-02T18:15:49;4.07;;;1.40;;
15833;SDS011;8017;50.812;4.934;2022-09-02T18:19:01;4.33;;;1.23;;
15833;SDS011;8017;50.812;4.934;2022-09-02T18:22:14;2.17;;;1.23;;
15833;SDS011;8017;50.812;4.934;2022-09-02T18:25:37;3.03;;;1.40;;
15833;SDS011;8017;50.812;4.934;2022-09-02T18:28:50;3.80;;;1.33;;
15833;SDS011;8017;50.812;4.934;2022-09-02T18:32:04;3.20;;;1.30;;
15833;SDS011;8017;50.812;4.934;2022-09-02T18:35:15;2.97;;;1.03;;
15833;SDS011;8017;50.812;4.934;2022-09-02T18:38:26;7.60;;;1.60;;
15833;SDS011;8017;50.812;4.934;2022-09-02T18:41:39;6.60;;;1.50;;
15833;SDS011;8017;50.812;4.934;2022-09-02T18:44:56;4.10;;;1.23;;
15833;SDS011;8017;50.812;4.934;2022-09-02T18:48:06;3.13;;;1.20;;
15833;SDS011;8017;50.812;4.934;2022-09-02T18:51:11;1.83;;;1.20;;
15833;SDS011;8017;50.812;4.934;2022-09-02T18:54:16;3.37;;;1.10;;
15833;SDS011;8017;50.812;4.934;2022-09-02T18:57:22;7.37;;;1.70;;
15833;SDS011;8017;50.812;4.934;2022-09-02T19:00:28;3.13;;;2.00;;
15833;SDS011;8017;50.812;4.934;2022-09-02T19:03:38;4.20;;;1.57;;
15833;SDS011;8017;50.812;4.934;2022-09-02T19:06:40;7.40;;;1.20;;
15833;SDS011;8017;50.812;4.934;2022-09-02T19:09:42;6.63;;;1.57;;